Time;durP1;ratioP1;P1;durP2;ratioP2;P2;SDS_P1;SDS_P2;PMS_P1;PMS_P2;Temp;Humidity;BMP_temperature;BMP_pressure;BME280_temperature;BME280_humidity;BME280_pressure;Samples;Min_cycle;Max_cycle;Signal;HPM_P1;HPM_P2
2023/09/25 00:00:27;;;;;;;5.17;3.00;;;;;;;11.54;82.12;154323.03;4953012;28;20536;-90
2023/09/25 00:02:53;;;;;;;2.90;2.50;;;;;;;11.49;82.57;154310.06;4969930;28;20589;-90
2023/09/25 00:05:21;;;;;;;3.60;3.20;;;;;;;11.43;83.32;154294.50;4972973;28;20613;-89
2023/09/25 00:07:48;;;;;;;5.70;2.70;;;;;;;11.50;82.32;154313.94;4980972;28;20479;-89
2023/09/25 00:10:15;;;;;;;3.33;3.00;;;;;;;11.50;82.76;154312.63;4979043;28;20536;-90
2023/09/25 00:12:42;;;;;;;3.70;3.10;;;;;;;11.48;82.34;154307.47;4974039;28;20449;-91
2023/09/25 00:15:09;;;;;;;4.40;3.10;;;;;;;11.41;82.94;154290.59;4984909;28;20875;-90
2023/09/25 00:17:36;;;;;;;3.53;2.90;;;;;;;11.40;83.03;154286.72;4962890;28;20459;-89
2023/09/25 00:20:04;;;;;;;3.70;3.00;;;;;;;11.39;83.43;154284.13;4968794;28;20493;-89
2023/09/25 00:22:32;;;;;;;3.67;3.00;;;;;;;11.39;83.46;154285.41;4970959;28;20468;-89
2023/09/25 00:24:59;;;;;;;3.73;3.30;;;;;;;11.31;84.13;154263.38;4958379;28;20471;-90
2023/09/25 00:27:26;;;;;;;4.20;3.40;;;;;;;11.24;84.22;154245.25;4975364;28;20877;-90
2023/09/25 00:29:53;;;;;;;4.23;3.13;;;;;;;11.24;84.31;154245.25;4971687;28;20464;-90
2023/09/25 00:32:20;;;;;;;3.93;3.53;;;;;;;11.28;84.07;154255.66;4954757;28;20445;-90
2023/09/25 00:34:46;;;;;;;4.00;3.43;;;;;;;11.20;84.41;154236.19;4957038;28;20480;-90
2023/09/25 00:37:13;;;;;;;3.57;2.87;;;;;;;11.16;84.71;154225.84;4969528;28;20529;-90
2023/09/25 00:39:44;;;;;;;4.00;3.10;;;;;;;11.16;84.89;154224.53;4953450;28;20458;-90
2023/09/25 00:42:11;;;;;;;3.20;2.90;;;;;;;11.11;84.91;154211.59;4952738;28;20430;-90
2023/09/25 00:44:37;;;;;;;5.30;3.90;;;;;;;11.08;84.96;154203.81;4966935;28;20502;-91
2023/09/25 00:47:06;;;;;;;4.90;3.33;;;;;;;10.98;85.99;154180.53;4970267;28;20508;-91
2023/09/25 00:49:33;;;;;;;3.70;3.10;;;;;;;10.92;85.93;154164.97;4950524;28;20474;-90
2023/09/25 00:52:00;;;;;;;4.90;3.33;;;;;;;10.97;85.58;154177.91;4958609;28;20556;-90
2023/09/25 00:54:27;;;;;;;4.50;3.37;;;;;;;10.96;85.71;154175.31;4961098;28;20465;-90
2023/09/25 00:56:55;;;;;;;3.67;3.23;;;;;;;11.00;85.47;154184.38;4950058;28;20557;-90
2023/09/25 00:59:22;;;;;;;3.87;3.47;;;;;;;11.01;84.92;154188.25;4965840;28;20461;-90
2023/09/25 01:01:48;;;;;;;3.53;2.77;;;;;;;11.08;85.04;154205.13;4963670;28;20503;-91
2023/09/25 01:04:15;;;;;;;2.87;2.57;;;;;;;11.20;84.33;154236.19;4959558;28;20623;-90
2023/09/25 01:06:43;;;;;;;3.27;2.90;;;;;;;11.24;83.63;154245.25;4963983;28;20469;-90
2023/09/25 01:09:12;;;;;;;3.90;2.90;;;;;;;11.28;83.28;154255.66;4967496;28;21360;-90
2023/09/25 01:11:39;;;;;;;4.07;3.20;;;;;;;11.32;83.03;154266.00;4967181;28;20450;-90
2023/09/25 01:14:07;;;;;;;3.50;2.83;;;;;;;11.27;83.09;154253.03;4964779;28;20910;-91
2023/09/25 01:16:33;;;;;;;3.87;2.93;;;;;;;11.25;83.56;154247.88;4964155;28;20445;-91
2023/09/25 01:19:00;;;;;;;5.80;3.17;;;;;;;11.27;83.46;154254.34;4940026;28;20470;-90
2023/09/25 01:21:27;;;;;;;3.40;3.10;;;;;;;11.20;83.78;154234.94;4963589;28;20939;-90
2023/09/25 01:23:58;;;;;;;3.40;2.87;;;;;;;11.19;83.29;154232.31;4967215;28;20461;-89
2023/09/25 01:26:24;;;;;;;3.03;2.83;;;;;;;11.19;83.41;154232.31;4951976;28;20482;-90
2023/09/25 01:28:51;;;;;;;3.27;2.90;;;;;;;11.20;83.48;154234.94;4987693;28;20452;-90
2023/09/25 01:31:17;;;;;;;3.77;3.00;;;;;;;11.21;83.35;154237.47;4969926;28;20882;-90
2023/09/25 01:33:44;;;;;;;3.33;2.60;;;;;;;11.23;83.02;154242.66;4970345;28;20856;-90
2023/09/25 01:36:11;;;;;;;4.03;2.63;;;;;;;11.27;82.80;154253.03;4965747;28;20462;-90
2023/09/25 01:38:38;;;;;;;3.43;2.50;;;;;;;11.27;82.87;154253.03;4959468;28;20497;-90
2023/09/25 01:41:06;;;;;;;5.73;3.07;;;;;;;11.26;82.92;154251.75;4975828;28;20490;-90
2023/09/25 01:43:32;;;;;;;5.33;2.60;;;;;;;11.25;82.94;154249.13;4976636;28;20455;-90
2023/09/25 01:45:59;;;;;;;2.90;2.50;;;;;;;11.19;82.85;154232.31;4969311;28;20587;-89
2023/09/25 01:48:26;;;;;;;3.90;3.03;;;;;;;11.29;82.75;154258.22;4960893;28;20465;-90
2023/09/25 01:50:52;;;;;;;3.43;3.13;;;;;;;11.31;82.85;154263.38;4963415;28;20486;-90
2023/09/25 01:53:19;;;;;;;3.57;2.80;;;;;;;11.29;82.80;154258.22;4969502;28;20449;-90
2023/09/25 01:55:45;;;;;;;4.10;2.60;;;;;;;11.24;82.79;154246.56;4948981;28;20502;-90
2023/09/25 01:58:13;;;;;;;3.00;2.20;;;;;;;11.15;83.26;154221.94;4944501;28;20477;-90
2023/09/25 02:00:41;;;;;;;3.30;2.70;;;;;;;11.15;83.06;154221.94;4967415;28;20489;-90
2023/09/25 02:03:07;;;;;;;3.80;2.70;;;;;;;11.15;83.09;154223.22;4945322;28;20798;-90
2023/09/25 02:05:34;;;;;;;3.60;2.70;;;;;;;11.11;82.97;154212.88;4928534;28;20465;-90
2023/09/25 02:08:02;;;;;;;2.50;2.30;;;;;;;11.14;83.04;154219.38;4937861;28;20456;-90
2023/09/25 02:10:29;;;;;;;4.70;2.90;;;;;;;11.12;83.54;154214.19;4933919;29;20690;-90
2023/09/25 02:12:56;;;;;;;3.30;2.50;;;;;;;11.11;83.29;154211.59;4934156;29;20857;-90
2023/09/25 02:15:24;;;;;;;3.60;2.63;;;;;;;11.02;83.58;154190.84;4924595;28;20824;-90
2023/09/25 02:17:51;;;;;;;4.17;2.80;;;;;;;11.02;83.37;154190.84;4937260;28;20457;-91
2023/09/25 02:20:19;;;;;;;2.60;2.20;;;;;;;11.01;83.49;154188.25;4948916;28;20482;-90
2023/09/25 02:22:46;;;;;;;3.60;2.53;;;;;;;11.09;83.26;154207.72;4937730;28;20456;-90
2023/09/25 02:25:13;;;;;;;3.90;2.77;;;;;;;11.03;83.65;154192.16;4933477;29;20565;-90
2023/09/25 02:27:40;;;;;;;2.50;2.10;;;;;;;10.97;83.94;154177.91;4920996;28;20483;-89
2023/09/25 02:30:07;;;;;;;4.20;3.50;;;;;;;10.89;84.21;154157.19;4963809;28;20468;-90
2023/09/25 02:32:36;;;;;;;3.60;2.63;;;;;;;10.89;84.14;154157.19;4953238;28;20459;-91
2023/09/25 02:35:02;;;;;;;3.30;2.50;;;;;;;11.01;83.31;154188.25;4968860;28;20464;-90
2023/09/25 02:37:30;;;;;;;3.70;2.60;;;;;;;10.96;83.24;154175.31;4969038;28;20463;-91
2023/09/25 02:39:56;;;;;;;3.23;2.80;;;;;;;10.91;83.56;154161.06;4953234;28;20462;-90
2023/09/25 02:42:23;;;;;;;3.53;3.00;;;;;;;10.87;84.03;154152.03;4951851;28;20483;-90
2023/09/25 02:44:50;;;;;;;3.50;2.70;;;;;;;10.88;83.71;154154.56;4934792;28;20908;-90
2023/09/25 02:47:18;;;;;;;3.43;2.33;;;;;;;10.84;84.26;154144.25;4938085;29;20458;-91
2023/09/25 02:49:46;;;;;;;3.70;2.70;;;;;;;10.79;84.29;154131.28;4965868;28;20938;-90
2023/09/25 02:52:12;;;;;;;4.87;2.63;;;;;;;10.74;84.63;154117.03;4936517;28;20461;-91
2023/09/25 02:54:39;;;;;;;3.47;2.93;;;;;;;10.68;84.95;154102.78;4952224;28;20968;-91
2023/09/25 02:57:05;;;;;;;3.90;3.23;;;;;;;10.72;84.55;154113.13;4968684;28;20790;-91
2023/09/25 02:59:32;;;;;;;4.53;2.40;;;;;;;10.75;84.76;154120.91;4936981;28;20528;-91
2023/09/25 03:01:58;;;;;;;4.03;2.90;;;;;;;10.73;84.57;154114.44;4938251;29;20494;-91
2023/09/25 03:04:26;;;;;;;4.10;2.50;;;;;;;10.72;84.64;154113.13;4933205;28;20472;-91
2023/09/25 03:06:54;;;;;;;4.90;2.73;;;;;;;10.71;84.24;154110.56;4945768;29;20490;-91
2023/09/25 03:09:21;;;;;;;5.80;2.93;;;;;;;10.70;84.42;154106.66;4951008;28;20466;-91
2023/09/25 03:11:47;;;;;;;3.03;2.50;;;;;;;10.69;84.40;154104.09;4928715;29;20461;-91
2023/09/25 03:14:14;;;;;;;3.50;2.63;;;;;;;10.69;84.21;154104.09;4937945;29;20679;-91
2023/09/25 03:16:41;;;;;;;3.83;2.90;;;;;;;10.69;84.02;154105.41;4921324;29;20961;-91
2023/09/25 03:19:08;;;;;;;3.87;2.93;;;;;;;10.71;83.76;154110.56;4951047;28;20973;-91
2023/09/25 03:21:35;;;;;;;3.90;2.90;;;;;;;10.71;84.17;154110.56;4937316;29;20577;-91
2023/09/25 03:24:03;;;;;;;3.50;2.87;;;;;;;10.73;84.08;154114.44;4954257;29;20477;-91
2023/09/25 03:26:29;;;;;;;2.97;2.57;;;;;;;10.73;84.31;154114.44;4937777;29;20474;-91
2023/09/25 03:28:56;;;;;;;3.20;2.40;;;;;;;10.77;84.14;154124.81;4907962;29;20880;-91
2023/09/25 03:31:23;;;;;;;2.33;1.90;;;;;;;10.78;83.84;154127.38;4950892;29;20471;-91
2023/09/25 03:33:51;;;;;;;5.00;3.07;;;;;;;10.71;84.13;154110.56;4938243;29;20450;-91
2023/09/25 03:36:18;;;;;;;2.83;2.50;;;;;;;10.80;84.02;154132.59;4921335;28;20790;-91
2023/09/25 03:38:44;;;;;;;2.70;2.50;;;;;;;10.81;83.79;154136.47;4933688;29;20780;-91
2023/09/25 03:41:12;;;;;;;4.07;2.70;;;;;;;10.76;84.29;154122.22;4921459;29;20486;-91
2023/09/25 03:43:39;;;;;;;3.80;2.70;;;;;;;10.69;84.46;154104.09;4921781;29;20462;-91
2023/09/25 03:46:06;;;;;;;3.33;2.57;;;;;;;10.68;84.99;154101.50;4915333;29;20463;-91
2023/09/25 03:48:33;;;;;;;3.37;2.90;;;;;;;10.61;85.26;154083.38;4937339;29;20457;-91
2023/09/25 03:51:00;;;;;;;4.10;3.00;;;;;;;10.58;85.58;154075.59;4908385;29;20814;-91
2023/09/25 03:53:27;;;;;;;3.23;2.77;;;;;;;10.54;85.86;154066.53;4918942;29;20472;-91
2023/09/25 03:55:53;;;;;;;3.13;2.57;;;;;;;10.53;86.34;154062.66;4944002;28;20520;-91
2023/09/25 03:58:21;;;;;;;5.03;3.00;;;;;;;10.58;86.37;154076.91;4937213;29;20456;-91
2023/09/25 04:00:48;;;;;;;4.73;2.93;;;;;;;10.55;86.65;154069.13;4936618;29;20554;-91
2023/09/25 04:03:14;;;;;;;3.23;2.70;;;;;;;10.53;86.67;154063.97;4936931;29;20425;-90
2023/09/25 04:05:41;;;;;;;5.00;2.67;;;;;;;10.49;87.21;154053.59;4954994;28;21014;-91
2023/09/25 04:08:08;;;;;;;3.10;2.27;;;;;;;10.49;87.92;154053.59;4936978;29;20446;-91
2023/09/25 04:10:35;;;;;;;3.50;2.70;;;;;;;10.53;87.77;154062.66;4921849;29;20476;-91
2023/09/25 04:13:02;;;;;;;3.47;3.13;;;;;;;10.53;87.98;154062.66;4944216;28;20481;-91
2023/09/25 04:15:31;;;;;;;3.30;2.63;;;;;;;10.55;87.80;154067.84;4952236;29;20467;-91
2023/09/25 04:17:58;;;;;;;3.17;2.57;;;;;;;10.64;88.00;154091.16;4936704;29;20953;-91
2023/09/25 04:20:25;;;;;;;3.90;2.93;;;;;;;10.65;87.87;154095.03;4919185;29;20471;-90
2023/09/25 04:22:52;;;;;;;3.20;2.37;;;;;;;10.62;88.18;154087.25;4925589;29;20515;-91
2023/09/25 04:25:19;;;;;;;4.10;2.83;;;;;;;10.58;88.00;154075.59;4936206;29;20452;-91
2023/09/25 04:27:47;;;;;;;3.07;2.60;;;;;;;10.54;88.40;154066.53;4936234;29;20452;-91
2023/09/25 04:30:15;;;;;;;4.03;3.20;;;;;;;10.52;89.14;154060.06;4920616;29;20459;-91
2023/09/25 04:32:44;;;;;;;4.60;2.97;;;;;;;10.48;90.37;154051.03;4952805;29;20466;-91
2023/09/25 04:35:12;;;;;;;3.90;2.93;;;;;;;10.46;90.67;154045.81;4936645;29;20460;-90
2023/09/25 04:37:39;;;;;;;3.40;2.73;;;;;;;10.45;90.68;154041.94;4919996;29;20454;-91
2023/09/25 04:40:21;;;;;;;4.03;2.80;;;;;;;10.44;90.60;154039.34;4921258;29;20472;-91
2023/09/25 04:42:48;;;;;;;3.57;2.60;;;;;;;10.52;90.31;154060.06;4925390;29;20478;-91
2023/09/25 04:45:18;;;;;;;5.63;2.97;;;;;;;10.51;90.24;154058.75;4952309;29;20479;-91
2023/09/25 04:47:46;;;;;;;5.00;3.20;;;;;;;10.59;89.96;154079.47;4936159;29;20443;-91
2023/09/25 04:50:13;;;;;;;8.20;3.57;;;;;;;10.61;89.97;154084.69;4936669;29;20460;-92
2023/09/25 04:52:41;;;;;;;3.10;2.80;;;;;;;10.60;90.03;154082.06;4920943;29;20438;-92
2023/09/25 04:55:10;;;;;;;4.50;2.87;;;;;;;10.66;89.85;154096.31;4919480;28;20988;-92
2023/09/25 04:57:37;;;;;;;3.17;2.87;;;;;;;10.60;89.48;154082.06;4941911;29;20459;-91
2023/09/25 05:00:12;;;;;;;3.70;3.00;;;;;;;10.58;89.92;154076.91;4929118;28;20475;-90
2023/09/25 05:02:38;;;;;;;3.50;2.80;;;;;;;10.53;90.03;154063.97;4979109;28;20519;-92
2023/09/25 05:05:07;;;;;;;3.30;2.90;;;;;;;10.51;90.36;154058.75;4977582;28;20830;-92
2023/09/25 05:07:35;;;;;;;3.70;3.03;;;;;;;10.48;90.81;154051.03;4940938;28;20457;-92
2023/09/25 05:10:01;;;;;;;4.40;3.50;;;;;;;10.46;90.81;154045.81;4976813;28;20969;-92
2023/09/25 05:12:28;;;;;;;3.40;2.50;;;;;;;10.43;91.32;154038.09;4965873;28;20465;-92
2023/09/25 05:14:55;;;;;;;4.37;2.97;;;;;;;10.48;91.01;154049.72;4976694;28;20462;-92
2023/09/25 05:17:21;;;;;;;6.83;3.27;;;;;;;10.58;90.48;154075.59;4947455;28;20472;-92
2023/09/25 05:19:48;;;;;;;5.90;3.30;;;;;;;10.63;90.51;154089.84;4952466;28;20451;-93
2023/09/25 05:22:16;;;;;;;3.87;2.90;;;;;;;10.68;90.01;154102.78;4927439;28;20868;-92
2023/09/25 05:24:43;;;;;;;4.30;2.70;;;;;;;10.65;90.01;154093.72;4941443;28;20461;-92
2023/09/25 05:27:09;;;;;;;4.10;2.67;;;;;;;10.63;90.22;154088.56;4948224;28;20458;-92
2023/09/25 05:29:37;;;;;;;3.70;3.03;;;;;;;10.60;91.05;154082.06;4948057;28;20490;-92
2023/09/25 05:32:04;;;;;;;3.67;2.90;;;;;;;10.61;91.51;154084.69;4937419;28;20968;-93
2023/09/25 05:34:31;;;;;;;3.20;2.80;;;;;;;10.58;92.02;154075.59;4954512;28;20468;-91
2023/09/25 05:36:58;;;;;;;4.20;2.43;;;;;;;10.55;93.22;154069.13;4938667;28;20455;-92
2023/09/25 05:39:26;;;;;;;3.47;2.87;;;;;;;10.52;93.28;154060.06;4949624;28;20534;-91
2023/09/25 05:41:53;;;;;;;3.13;2.83;;;;;;;10.52;93.88;154060.06;4942658;28;20882;-93
2023/09/25 05:44:22;;;;;;;4.20;2.90;;;;;;;10.50;95.02;154056.19;4943782;28;20472;-93
2023/09/25 05:46:48;;;;;;;3.30;2.67;;;;;;;10.45;96.17;154043.25;4941522;28;20820;-94
2023/09/25 05:49:16;;;;;;;3.87;3.00;;;;;;;10.40;95.70;154030.31;4946593;28;20468;-93
2023/09/25 05:51:42;;;;;;;4.40;3.60;;;;;;;10.43;96.28;154036.78;4946497;28;20443;-92
2023/09/25 05:54:09;;;;;;;3.80;2.80;;;;;;;10.46;95.51;154045.81;4954445;28;20982;-92
2023/09/25 05:56:38;;;;;;;4.70;3.50;;;;;;;10.51;96.85;154057.50;4929966;28;20452;-92
2023/09/25 05:59:05;;;;;;;3.20;2.90;;;;;;;10.47;97.50;154048.41;4945658;28;20460;-93
2023/09/25 06:01:31;;;;;;;5.60;3.33;;;;;;;10.48;97.39;154049.72;4939794;28;20491;-92
2023/09/25 06:03:58;;;;;;;4.80;3.27;;;;;;;10.48;98.10;154049.72;4958306;28;20558;-93
2023/09/25 06:06:25;;;;;;;3.80;2.90;;;;;;;10.46;97.62;154045.81;4954212;28;20542;-93
2023/09/25 06:08:52;;;;;;;3.50;3.20;;;;;;;10.60;96.60;154082.06;4959729;28;20460;-92
2023/09/25 06:11:19;;;;;;;3.50;3.20;;;;;;;10.79;96.13;154131.28;4954763;28;20451;-94
2023/09/25 06:13:47;;;;;;;4.00;3.23;;;;;;;10.97;96.45;154176.59;4955852;28;20563;-93
2023/09/25 06:16:13;;;;;;;3.23;2.60;;;;;;;11.26;96.61;154250.44;4962279;28;20563;-92
2023/09/25 06:18:41;;;;;;;3.43;2.90;;;;;;;11.57;94.98;154332.06;4955413;28;20455;-93
2023/09/25 06:21:10;;;;;;;3.80;3.07;;;;;;;11.98;92.69;154435.81;4961252;28;20608;-92
2023/09/25 06:23:36;;;;;;;3.67;3.07;;;;;;;12.42;91.61;154548.56;4953028;28;20474;-91
2023/09/25 06:26:04;;;;;;;4.10;3.00;;;;;;;12.77;88.17;154640.66;4961047;28;20478;-92
2023/09/25 06:28:32;;;;;;;3.33;3.03;;;;;;;13.12;85.88;154730.22;4962818;28;20837;-91
2023/09/25 06:31:00;;;;;;;3.20;2.80;;;;;;;13.47;83.16;154818.47;4949244;28;20462;-91
2023/09/25 06:33:28;;;;;;;3.43;3.13;;;;;;;13.79;80.89;154901.53;4965245;28;20987;-91
2023/09/25 06:35:55;;;;;;;3.10;2.80;;;;;;;14.10;79.40;154982.03;4971507;28;21056;-91
2023/09/25 06:38:22;;;;;;;5.40;2.80;;;;;;;14.38;78.42;155054.75;4952231;28;20458;-91
2023/09/25 06:40:48;;;;;;;3.87;2.90;;;;;;;14.61;77.23;155113.25;4949023;28;20521;-91
2023/09/25 06:43:15;;;;;;;4.63;2.80;;;;;;;14.90;76.58;155188.56;4965660;28;20500;-90
2023/09/25 06:45:42;;;;;;;3.40;2.90;;;;;;;15.17;75.48;155257.41;4956720;28;20943;-90
2023/09/25 06:48:10;;;;;;;4.50;2.80;;;;;;;15.39;73.49;155313.28;4961638;28;20468;-87
2023/09/25 06:50:37;;;;;;;3.50;2.80;;;;;;;15.61;74.04;155370.53;4970324;28;20454;-88
2023/09/25 06:53:04;;;;;;;6.00;3.07;;;;;;;15.83;72.32;155429.03;4968196;28;20478;-87
2023/09/25 06:55:31;;;;;;;3.27;2.27;;;;;;;16.05;69.37;155483.63;4967145;28;20839;-87
2023/09/25 06:57:57;;;;;;;3.20;2.70;;;;;;;16.24;68.46;155533.06;4962435;28;20466;-87
2023/09/25 07:00:24;;;;;;;3.43;3.13;;;;;;;16.44;68.13;155585.09;4961394;28;20513;-87
2023/09/25 07:02:52;;;;;;;3.70;3.00;;;;;;;16.69;67.00;155648.84;4949596;28;20498;-86
2023/09/25 07:05:21;;;;;;;3.07;2.50;;;;;;;16.97;65.74;155723.00;4951088;28;20457;-87
2023/09/25 07:07:50;;;;;;;4.57;2.53;;;;;;;17.24;65.29;155791.97;4946072;28;20454;-87
2023/09/25 07:10:17;;;;;;;3.50;2.70;;;;;;;17.44;63.70;155842.75;4931005;28;20458;-87
2023/09/25 07:12:44;;;;;;;3.90;3.00;;;;;;;17.41;62.08;155834.94;4945796;28;20815;-86
2023/09/25 07:15:11;;;;;;;3.37;2.67;;;;;;;17.60;63.73;155884.47;4957893;28;20482;-87
2023/09/25 07:17:38;;;;;;;3.30;2.60;;;;;;;17.83;62.42;155944.34;4948261;28;20960;-87
2023/09/25 07:20:05;;;;;;;4.40;2.60;;;;;;;17.71;61.44;155913.13;4954440;28;20492;-86
2023/09/25 07:22:33;;;;;;;3.20;2.90;;;;;;;17.76;62.18;155924.81;4951222;28;20542;-87
2023/09/25 07:25:00;;;;;;;4.60;3.03;;;;;;;17.86;60.97;155950.84;4956263;28;21077;-86
2023/09/25 07:27:28;;;;;;;5.43;3.57;;;;;;;17.79;61.42;155933.91;4960914;28;20823;-86
2023/09/25 07:29:54;;;;;;;6.57;2.97;;;;;;;18.01;61.13;155989.88;4953382;28;20894;-86
2023/09/25 07:32:22;;;;;;;3.30;3.00;;;;;;;18.24;60.32;156051.09;4946991;28;20541;-86
2023/09/25 07:34:48;;;;;;;7.60;2.90;;;;;;;18.65;61.25;156155.38;4962503;28;20460;-86
2023/09/25 07:37:17;;;;;;;2.60;2.40;;;;;;;18.93;59.70;156227.03;4978716;28;20459;-86
2023/09/25 07:39:45;;;;;;;4.60;3.53;;;;;;;19.12;58.04;156277.84;4977078;28;20453;-87
2023/09/25 07:42:12;;;;;;;4.43;3.10;;;;;;;19.14;57.43;156283.03;4976482;28;20973;-86
2023/09/25 07:44:39;;;;;;;3.30;3.00;;;;;;;19.21;58.31;156300.00;4943257;28;20564;-87
2023/09/25 07:47:07;;;;;;;3.90;3.17;;;;;;;19.26;57.44;156314.34;4944630;28;20551;-86
2023/09/25 07:49:38;;;;;;;3.80;2.83;;;;;;;19.16;57.66;156286.97;4976963;28;20485;-86
2023/09/25 07:52:15;;;;;;;3.40;2.90;;;;;;;19.26;56.80;156314.34;4959365;28;20449;-85
2023/09/25 07:54:43;;;;;;;4.63;2.80;;;;;;;19.32;57.62;156330.00;4926882;28;20553;-86
2023/09/25 07:57:14;;;;;;;4.73;3.40;;;;;;;19.31;57.42;156326.06;4976723;28;21321;-86
2023/09/25 07:59:40;;;;;;;3.97;3.23;;;;;;;19.21;56.82;156301.31;4942161;28;20474;-86
2023/09/25 08:02:08;;;;;;;4.77;3.43;;;;;;;19.14;57.53;156283.03;4958458;28;20485;-86
2023/09/25 08:04:35;;;;;;;4.73;3.40;;;;;;;19.05;57.83;156259.59;4930846;28;20464;-86
2023/09/25 08:07:02;;;;;;;3.90;3.03;;;;;;;19.03;58.03;156254.41;4976457;28;20985;-86
2023/09/25 08:09:29;;;;;;;3.17;2.83;;;;;;;18.88;58.24;156214.03;4927082;28;20487;-85
2023/09/25 08:11:55;;;;;;;3.83;2.77;;;;;;;18.66;58.04;156158.00;4954802;28;20849;-86
2023/09/25 08:14:24;;;;;;;3.70;2.90;;;;;;;18.58;59.67;156137.13;4949633;28;21059;-86
2023/09/25 08:16:51;;;;;;;3.90;3.30;;;;;;;18.51;59.18;156118.88;4945631;28;20507;-85
2023/09/25 08:19:18;;;;;;;4.30;3.00;;;;;;;18.46;60.20;156107.09;4958897;28;20974;-85
2023/09/25 08:21:45;;;;;;;3.50;3.03;;;;;;;18.23;60.48;156048.53;4943323;28;20833;-86
2023/09/25 08:24:12;;;;;;;3.90;3.40;;;;;;;18.14;60.46;156025.06;4942702;28;20981;-85
2023/09/25 08:26:39;;;;;;;3.90;2.90;;;;;;;18.16;61.19;156030.25;4948488;28;20505;-86
2023/09/25 08:29:06;;;;;;;4.40;3.77;;;;;;;18.13;60.52;156022.50;4961010;28;20454;-85
2023/09/25 08:31:34;;;;;;;5.20;3.10;;;;;;;18.09;61.83;156012.03;4957682;28;20577;-85
2023/09/25 08:34:01;;;;;;;6.20;3.50;;;;;;;17.98;61.44;155983.38;4944667;28;20470;-85
2023/09/25 08:36:28;;;;;;;3.47;2.80;;;;;;;17.91;62.50;155965.16;4941814;28;20473;-86
2023/09/25 08:38:54;;;;;;;4.33;3.27;;;;;;;18.05;61.73;156000.34;4938495;28;20447;-85
2023/09/25 08:41:22;;;;;;;3.80;3.33;;;;;;;18.06;61.52;156004.22;4968337;28;20829;-85
2023/09/25 08:43:49;;;;;;;4.20;3.67;;;;;;;18.08;61.41;156008.16;4942825;28;20862;-85
2023/09/25 08:46:16;;;;;;;4.13;3.73;;;;;;;18.00;63.04;155987.31;4941910;28;20557;-85
2023/09/25 08:48:45;;;;;;;3.97;3.57;;;;;;;17.86;61.26;155952.16;4940660;28;20474;-85
2023/09/25 08:51:12;;;;;;;4.27;3.87;;;;;;;17.87;62.12;155953.47;4963629;28;20558;-85
2023/09/25 08:53:39;;;;;;;5.17;4.17;;;;;;;18.00;63.38;155988.59;4958874;28;20465;-85
2023/09/25 08:56:06;;;;;;;4.07;3.40;;;;;;;18.09;62.35;156012.03;4945832;28;20447;-84
2023/09/25 08:58:34;;;;;;;4.50;4.10;;;;;;;18.11;61.26;156017.25;4958153;28;20445;-84
2023/09/25 09:01:00;;;;;;;4.00;3.57;;;;;;;18.06;62.17;156002.91;4948229;28;20938;-84
2023/09/25 09:03:27;;;;;;;5.27;4.03;;;;;;;17.97;61.35;155979.50;4926617;28;20470;-84
2023/09/25 09:05:56;;;;;;;4.60;3.83;;;;;;;17.70;62.20;155909.19;4958789;28;20470;-84
2023/09/25 09:08:23;;;;;;;5.63;4.40;;;;;;;17.66;63.44;155900.06;4941424;28;20473;-83
2023/09/25 09:10:49;;;;;;;4.27;3.77;;;;;;;17.69;63.14;155907.88;4962615;28;20455;-85
2023/09/25 09:13:22;;;;;;;4.83;3.73;;;;;;;17.71;63.22;155913.13;4957824;28;20455;-84
2023/09/25 09:15:49;;;;;;;5.50;3.17;;;;;;;17.71;63.53;155911.81;4956683;28;20806;-84
2023/09/25 09:18:21;;;;;;;4.23;3.63;;;;;;;17.65;64.15;155897.47;4947087;28;20921;-84
2023/09/25 09:20:47;;;;;;;7.03;3.73;;;;;;;17.79;64.15;155933.91;4974162;28;20461;-84
2023/09/25 09:23:16;;;;;;;5.27;4.10;;;;;;;17.79;62.70;155933.91;4926602;28;20963;-84
2023/09/25 09:25:45;;;;;;;4.17;3.77;;;;;;;17.78;62.95;155931.31;4955768;28;20459;-84
2023/09/25 09:28:12;;;;;;;3.90;3.40;;;;;;;17.85;61.67;155949.53;4969410;28;20586;-84
2023/09/25 09:30:38;;;;;;;4.57;3.60;;;;;;;17.77;62.31;155928.69;4977762;28;20457;-83
2023/09/25 09:33:08;;;;;;;4.50;3.50;;;;;;;17.83;62.61;155944.34;4943336;28;20981;-84
2023/09/25 09:35:35;;;;;;;4.37;3.60;;;;;;;17.87;61.66;155954.72;4970277;28;20458;-84
2023/09/25 09:38:04;;;;;;;3.80;3.40;;;;;;;17.69;62.80;155907.88;4946850;28;20549;-84
2023/09/25 09:40:32;;;;;;;4.20;3.23;;;;;;;17.64;62.07;155894.84;4954938;28;20462;-84
2023/09/25 09:42:59;;;;;;;4.20;3.13;;;;;;;17.69;62.43;155906.56;4956074;28;20502;-84
2023/09/25 09:45:28;;;;;;;4.17;3.10;;;;;;;17.68;62.48;155905.28;4952301;28;20509;-84
2023/09/25 09:47:56;;;;;;;4.03;3.27;;;;;;;17.71;62.27;155913.13;4932261;28;20497;-84
2023/09/25 09:50:28;;;;;;;3.40;3.10;;;;;;;17.70;61.27;155909.19;4948800;28;20460;-84
2023/09/25 09:52:56;;;;;;;5.57;3.50;;;;;;;17.58;60.36;155879.22;4947765;28;20451;-85
2023/09/25 09:55:23;;;;;;;6.00;3.33;;;;;;;17.43;60.58;155841.44;4925802;28;20461;-85
2023/09/25 09:57:51;;;;;;;4.47;3.30;;;;;;;17.41;61.36;155834.94;4940914;28;20453;-84
2023/09/25 10:00:18;;;;;;;4.03;3.40;;;;;;;17.53;60.31;155867.53;4940056;28;20481;-84
2023/09/25 10:02:46;;;;;;;5.70;3.67;;;;;;;17.50;60.86;155858.38;4961570;28;20811;-84
2023/09/25 10:05:13;;;;;;;4.20;2.90;;;;;;;17.57;65.44;155876.66;4955408;28;20810;-84
2023/09/25 10:08:05;;;;;;;4.30;3.60;;;;;;;17.49;62.05;155855.78;4957247;28;20800;-84
2023/09/25 10:10:32;;;;;;;3.07;2.77;;;;;;;17.57;63.56;155876.66;4966891;28;20527;-84
2023/09/25 10:13:00;;;;;;;4.00;3.60;;;;;;;17.64;60.78;155894.84;4974984;28;20459;-84
2023/09/25 10:15:27;;;;;;;4.23;3.27;;;;;;;17.78;61.08;155931.31;4975018;28;20938;-84
2023/09/25 10:17:54;;;;;;;4.20;3.13;;;;;;;17.79;59.63;155933.91;4974890;28;20446;-84
2023/09/25 10:20:36;;;;;;;3.60;3.03;;;;;;;17.83;60.59;155944.34;4972448;28;20466;-85
2023/09/25 10:23:09;;;;;;;7.03;3.30;;;;;;;17.85;61.94;155949.53;4973171;28;20548;-85
2023/09/25 10:25:47;;;;;;;3.73;3.10;;;;;;;17.90;61.12;155962.56;4959407;28;21120;-85
2023/09/25 10:28:22;;;;;;;3.87;3.10;;;;;;;17.93;61.75;155969.06;4975036;28;20488;-85
2023/09/25 10:30:49;;;;;;;6.17;3.90;;;;;;;17.92;61.14;155967.78;4989073;28;20548;-85
2023/09/25 10:33:17;;;;;;;4.00;3.60;;;;;;;17.94;61.85;155973.00;4956083;28;20925;-85
2023/09/25 10:35:47;;;;;;;6.03;3.83;;;;;;;17.76;60.62;155926.13;4978780;28;20825;-84
2023/09/25 10:38:17;;;;;;;4.53;3.10;;;;;;;17.74;62.40;155920.88;4973372;28;20660;-84
2023/09/25 10:40:44;;;;;;;4.30;3.50;;;;;;;17.77;61.76;155928.69;4976701;28;20462;-84
2023/09/25 10:43:11;;;;;;;3.30;2.90;;;;;;;17.70;62.76;155910.50;4958947;28;20934;-85
2023/09/25 10:45:39;;;;;;;4.03;3.60;;;;;;;17.66;61.91;155900.06;4973525;28;20981;-85
2023/09/25 10:48:07;;;;;;;3.97;3.27;;;;;;;17.58;62.23;155880.53;4962879;28;20880;-85
2023/09/25 10:50:33;;;;;;;5.90;3.60;;;;;;;17.62;62.93;155890.97;4964936;28;20485;-85
2023/09/25 10:53:00;;;;;;;5.50;3.57;;;;;;;17.63;64.03;155893.53;4967878;28;20461;-85
2023/09/25 10:55:27;;;;;;;3.73;3.03;;;;;;;17.60;62.80;155884.47;4956518;28;20548;-85
2023/09/25 10:57:53;;;;;;;3.80;3.13;;;;;;;17.65;65.01;155897.47;4956416;28;20459;-85
2023/09/25 11:00:20;;;;;;;3.90;2.83;;;;;;;17.80;64.31;155935.22;4955594;28;20473;-85
2023/09/25 11:02:48;;;;;;;6.17;3.40;;;;;;;17.76;63.83;155926.13;4957569;28;20480;-85
2023/09/25 11:05:15;;;;;;;4.00;3.60;;;;;;;17.78;64.42;155930.00;4958761;28;20477;-85
2023/09/25 11:07:42;;;;;;;4.20;3.27;;;;;;;17.80;65.18;155935.22;4943702;28;20470;-85
2023/09/25 11:10:10;;;;;;;4.90;4.00;;;;;;;17.78;71.00;155931.31;4963694;28;20493;-85
2023/09/25 11:12:37;;;;;;;4.97;3.50;;;;;;;17.66;67.21;155900.06;4968986;28;20814;-85
2023/09/25 11:15:09;;;;;;;3.00;2.70;;;;;;;17.80;66.35;155936.53;4958240;28;20492;-85
2023/09/25 11:17:35;;;;;;;5.67;3.00;;;;;;;17.96;66.06;155978.19;4957536;28;20466;-85
2023/09/25 11:20:16;;;;;;;4.07;3.57;;;;;;;17.98;66.05;155983.38;4960555;28;20817;-86
2023/09/25 11:22:43;;;;;;;3.70;3.40;;;;;;;17.99;66.75;155986.00;4959837;28;20488;-85
2023/09/25 11:25:15;;;;;;;3.97;3.00;;;;;;;17.98;66.04;155983.38;4953097;28;20497;-85